createdAt,value
2022-09-28T00:01:23.911Z,93852.20
2022-09-28T00:03:58.227Z,93853.80
2022-09-28T00:06:27.776Z,93846.00
2022-09-28T00:08:55.295Z,93841.20
2022-09-28T00:11:28.128Z,93839.60
2022-09-28T00:14:00.158Z,93834.80
2022-09-28T00:16:33.800Z,93832.40
2022-09-28T00:19:01.011Z,93823.60
2022-09-28T00:21:31.196Z,93818.40
2022-09-28T00:24:17.217Z,93814.20
2022-09-28T00:26:56.534Z,93810.40
2022-09-28T00:29:31.663Z,93810.40
2022-09-28T00:32:02.366Z,93802.80
2022-09-28T00:34:36.151Z,93791.20
2022-09-28T00:37:05.771Z,93781.20
2022-09-28T00:39:32.465Z,93779.60
2022-09-28T00:41:59.735Z,93779.20
2022-09-28T00:44:26.459Z,93775.60
2022-09-28T00:46:55.076Z,93769.80
2022-09-28T00:49:44.474Z,93767.80
2022-09-28T00:52:15.974Z,93769.20
2022-09-28T00:54:45.147Z,93766.20
2022-09-28T00:57:12.458Z,93761.40
2022-09-28T00:59:39.744Z,93760.60
2022-09-28T01:02:06.770Z,93753.20
2022-09-28T01:04:33.649Z,93749.40
2022-09-28T01:07:00.315Z,93750.40
2022-09-28T01:09:27.757Z,93744.80
2022-09-28T01:11:55.333Z,93741.60
2022-09-28T01:14:25.778Z,93739.00
2022-09-28T01:17:02.914Z,93736.60
2022-09-28T01:20:08.455Z,93732.80
2022-09-28T01:23:06.480Z,93717.60
2022-09-28T01:25:57.393Z,93717.60
2022-09-28T01:28:28.772Z,93722.20
2022-09-28T01:31:11.487Z,93721.80
2022-09-28T01:33:47.322Z,93712.20
2022-09-28T01:36:29.218Z,93700.60
2022-09-28T01:39:03.172Z,93689.40
2022-09-28T01:41:32.673Z,93682.60
2022-09-28T01:44:02.961Z,93679.80
2022-09-28T01:46:47.012Z,93675.40
2022-09-28T01:49:21.645Z,93666.40
2022-09-28T01:52:06.817Z,93657.80
2022-09-28T01:54:40.712Z,93649.00
2022-09-28T01:57:46.122Z,93646.40
2022-09-28T02:00:15.795Z,93639.40
2022-09-28T02:03:18.737Z,93631.20
2022-09-28T02:06:00.982Z,93619.20
2022-09-28T02:08:36.379Z,93612.80
2022-09-28T02:11:17.567Z,93612.40
2022-09-28T02:13:59.858Z,93600.80
2022-09-28T02:16:40.260Z,93601.00
2022-09-28T02:19:12.761Z,93592.40
2022-09-28T02:22:04.521Z,93589.40
2022-09-28T02:25:24.242Z,93585.40
2022-09-28T02:28:04.982Z,93574.60
2022-09-28T02:30:36.657Z,93571.80
2022-09-28T02:33:20.373Z,93564.40
2022-09-28T02:35:47.619Z,93564.60
2022-09-28T02:38:15.629Z,93560.20
2022-09-28T02:40:53.251Z,93556.80
2022-09-28T02:44:13.282Z,93551.40
2022-09-28T02:47:13.379Z,93547.00
2022-09-28T02:50:20.921Z,93546.00
2022-09-28T02:53:22.135Z,93538.80
2022-09-28T02:56:24.400Z,93526.60
2022-09-28T02:59:19.827Z,93523.00
2022-09-28T03:02:05.091Z,93528.40
2022-09-28T03:04:49.503Z,93519.20
2022-09-28T03:07:36.375Z,93513.40
2022-09-28T03:10:12.845Z,93512.00
2022-09-28T03:12:39.765Z,93513.00
2022-09-28T03:15:23.785Z,93505.60
2022-09-28T03:17:51.167Z,93507.20
2022-09-28T03:20:18.137Z,93501.60
2022-09-28T03:23:00.233Z,93503.60
2022-09-28T03:25:32.104Z,93507.60
2022-09-28T03:27:58.929Z,93509.80
2022-09-28T03:30:25.953Z,93509.40
2022-09-28T03:33:02.569Z,93508.80
2022-09-28T03:35:30.805Z,93510.00
2022-09-28T03:37:57.634Z,93506.00
2022-09-28T03:40:25.324Z,93502.80
2022-09-28T03:42:52.514Z,93502.40
2022-09-28T03:45:20.028Z,93496.60
2022-09-28T03:47:48.720Z,93494.80
2022-09-28T03:50:15.616Z,93492.40
2022-09-28T03:52:42.670Z,93486.40
2022-09-28T03:55:10.059Z,93481.80
2022-09-28T03:57:37.410Z,93489.40
2022-09-28T04:00:06.137Z,93484.40
2022-09-28T04:02:40.455Z,93481.00
2022-09-28T04:05:07.472Z,93477.40
2022-09-28T04:07:34.151Z,93475.40
2022-09-28T04:10:00.981Z,93470.80
2022-09-28T04:12:27.663Z,93467.40
2022-09-28T04:14:54.303Z,93464.80
2022-09-28T04:17:20.925Z,93461.80
2022-09-28T04:19:47.977Z,93463.20
2022-09-28T04:22:47.042Z,93459.40
2022-09-28T04:25:13.723Z,93463.40
2022-09-28T04:27:59.474Z,93464.80
2022-09-28T04:30:26.445Z,93461.00
2022-09-28T04:32:53.106Z,93461.80
2022-09-28T04:35:20.036Z,93467.20
2022-09-28T04:37:46.907Z,93464.00
2022-09-28T04:40:13.714Z,93460.60
2022-09-28T04:42:40.388Z,93460.40
2022-09-28T04:45:07.928Z,93454.80
2022-09-28T04:47:37.820Z,93453.00
2022-09-28T04:50:16.146Z,93454.80
2022-09-28T04:53:02.165Z,93459.40
2022-09-28T04:55:32.401Z,93460.40
2022-09-28T04:58:02.589Z,93459.40
2022-09-28T05:00:35.080Z,93459.80
2022-09-28T05:03:18.301Z,93468.80
2022-09-28T05:06:15.966Z,93471.40
2022-09-28T05:08:46.984Z,93480.80
2022-09-28T05:11:14.916Z,93479.40
2022-09-28T05:13:45.321Z,93485.80
2022-09-28T05:16:18.409Z,93484.40
2022-09-28T05:19:03.627Z,93480.00
2022-09-28T05:21:30.890Z,93478.40
2022-09-28T05:23:58.323Z,93477.60
2022-09-28T05:26:25.546Z,93471.60
2022-09-28T05:28:52.138Z,93465.60
2022-09-28T05:31:37.610Z,93456.60
2022-09-28T05:34:24.497Z,93451.60
2022-09-28T05:36:53.333Z,93443.60
2022-09-28T05:39:20.362Z,93437.40
2022-09-28T05:41:46.984Z,93436.20
2022-09-28T05:44:13.554Z,93429.60
2022-09-28T05:46:41.016Z,93423.60
2022-09-28T05:49:09.255Z,93422.40
2022-09-28T05:51:36.722Z,93426.40
2022-09-28T05:54:06.130Z,93422.20
2022-09-28T05:56:34.318Z,93421.60
2022-09-28T05:59:05.371Z,93429.00
2022-09-28T06:01:32.236Z,93413.40
2022-09-28T06:03:59.720Z,93409.60
2022-09-28T06:06:26.385Z,93401.80
2022-09-28T06:08:53.051Z,93391.00
2022-09-28T06:11:37.687Z,93391.00
2022-09-28T06:14:19.354Z,93384.40
2022-09-28T06:16:45.995Z,93382.20
2022-09-28T06:19:12.954Z,93378.80
2022-09-28T06:22:02.724Z,93375.80
2022-09-28T06:24:31.751Z,93374.80
2022-09-28T06:26:58.404Z,93379.20
2022-09-28T06:29:25.083Z,93382.40
2022-09-28T06:31:52.391Z,93384.40
2022-09-28T06:34:19.205Z,93379.60
2022-09-28T06:36:45.935Z,93379.00
2022-09-28T06:39:12.596Z,93377.20
2022-09-28T06:41:41.972Z,93382.40
2022-09-28T06:44:16.932Z,93381.80
2022-09-28T06:47:03.643Z,93384.40
2022-09-28T06:49:55.560Z,93387.40
2022-09-28T06:52:40.718Z,93396.60
2022-09-28T06:55:16.821Z,93392.20
2022-09-28T06:57:45.712Z,93387.40
2022-09-28T07:00:13.747Z,93384.40
2022-09-28T07:02:43.055Z,93390.40
2022-09-28T07:05:34.235Z,93388.60
2022-09-28T07:08:25.838Z,93385.20
2022-09-28T07:11:07.997Z,93386.60
2022-09-28T07:13:51.202Z,93390.00
2022-09-28T07:16:26.399Z,93393.20
2022-09-28T07:18:54.705Z,93397.80
2022-09-28T07:21:29.330Z,93400.80
2022-09-28T07:24:00.158Z,93407.40
2022-09-28T07:26:33.360Z,93411.20
2022-09-28T07:28:59.980Z,93414.40
2022-09-28T07:31:56.454Z,93417.80
2022-09-28T07:34:26.014Z,93417.40
2022-09-28T07:36:59.101Z,93407.00
2022-09-28T07:39:25.785Z,93415.20
2022-09-28T07:41:56.716Z,93420.40
2022-09-28T07:44:26.802Z,93418.60
2022-09-28T07:46:54.326Z,93417.20
2022-09-28T07:49:26.333Z,93417.60
2022-09-28T07:51:58.163Z,93422.20
2022-09-28T07:54:39.546Z,93425.00
2022-09-28T07:57:22.843Z,93419.20
2022-09-28T08:00:22.464Z,93420.20
2022-09-28T08:02:49.434Z,93425.80
2022-09-28T08:05:21.360Z,93424.20
2022-09-28T08:07:47.966Z,93429.80
2022-09-28T08:10:14.953Z,93428.00
2022-09-28T08:13:04.762Z,93432.20
2022-09-28T08:15:36.986Z,93432.00
2022-09-28T08:18:31.026Z,93439.20
2022-09-28T08:21:16.701Z,93445.20
2022-09-28T08:23:43.510Z,93440.80
2022-09-28T08:26:15.364Z,93435.60
2022-09-28T08:28:45.162Z,93429.20
2022-09-28T08:31:48.495Z,93435.40
2022-09-28T08:34:41.850Z,93446.00
2022-09-28T08:37:38.170Z,93453.40
2022-09-28T08:40:57.542Z,93444.00
2022-09-28T08:43:56.984Z,93450.00
2022-09-28T08:46:48.259Z,93452.40
2022-09-28T08:49:47.272Z,93446.40
2022-09-28T08:52:48.552Z,93449.40
2022-09-28T08:55:45.210Z,93457.20
2022-09-28T08:58:18.226Z,93461.40
2022-09-28T09:00:51.729Z,93471.00
2022-09-28T09:03:33.403Z,93478.40
2022-09-28T09:07:11.853Z,93482.60
2022-09-28T09:10:39.244Z,93492.80
2022-09-28T09:13:23.714Z,93530.60
2022-09-28T09:16:15.508Z,93544.00
2022-09-28T09:19:36.140Z,93539.60
2022-09-28T09:22:27.396Z,93553.40
2022-09-28T09:25:55.117Z,93551.20
2022-09-28T09:29:06.345Z,93546.80
2022-09-28T09:31:50.136Z,93548.40
2022-09-28T09:34:22.962Z,93546.80
2022-09-28T09:37:24.237Z,93552.80
2022-09-28T09:40:27.352Z,93549.40
2022-09-28T09:44:04.318Z,93554.60
2022-09-28T09:47:06.343Z,93567.00
2022-09-28T09:49:51.435Z,93570.40
2022-09-28T09:52:29.359Z,93582.40
2022-09-28T09:55:03.833Z,93576.40
2022-09-28T09:58:23.401Z,93577.80
2022-09-28T10:01:17.780Z,93584.80
2022-09-28T10:04:07.827Z,93582.00
2022-09-28T10:06:36.804Z,93587.80
2022-09-28T10:09:16.947Z,93579.40
2022-09-28T10:11:49.055Z,93578.40
2022-09-28T10:14:21.284Z,93590.40
2022-09-28T10:17:14.765Z,93582.60
2022-09-28T10:20:01.559Z,93582.00
2022-09-28T10:22:57.325Z,93588.20
2022-09-28T10:25:25.309Z,93591.00
2022-09-28T10:27:52.727Z,93594.40
2022-09-28T10:30:25.588Z,93601.80
2022-09-28T10:32:59.076Z,93601.60
2022-09-28T10:35:30.043Z,93598.00
2022-09-28T10:38:17.432Z,93592.20
2022-09-28T10:40:55.354Z,93596.00
2022-09-28T10:43:33.660Z,93594.80
2022-09-28T10:46:14.765Z,93600.00
2022-09-28T10:48:55.528Z,93600.80
2022-09-28T10:51:44.675Z,93604.20
2022-09-28T10:54:34.390Z,93612.40
2022-09-28T10:57:01.354Z,93615.80
2022-09-28T10:59:43.184Z,93603.80
2022-09-28T11:02:39.923Z,93609.80
2022-09-28T11:05:22.880Z,93600.60
2022-09-28T11:07:52.482Z,93599.20
2022-09-28T11:10:29.212Z,93597.80
2022-09-28T11:13:00.881Z,93589.20
2022-09-28T11:15:33.403Z,93589.40
2022-09-28T11:18:24.838Z,93603.20
2022-09-28T11:20:51.832Z,93613.20
2022-09-28T11:23:31.403Z,93598.20
2022-09-28T11:26:08.955Z,93603.60
2022-09-28T11:28:38.436Z,93603.40
2022-09-28T11:31:18.294Z,93605.60
2022-09-28T11:34:36.493Z,93611.40
2022-09-28T11:37:42.337Z,93618.00
2022-09-28T11:40:47.010Z,93618.00
2022-09-28T11:43:57.041Z,93602.40
2022-09-28T11:47:20.485Z,93603.00
2022-09-28T11:50:02.745Z,93596.40
2022-09-28T11:52:56.420Z,93598.00
2022-09-28T11:56:08.539Z,93613.20
2022-09-28T11:58:45.936Z,93621.20
2022-09-28T12:01:35.641Z,93628.80
2022-09-28T12:04:40.810Z,93629.60
2022-09-28T12:07:23.202Z,93622.00
2022-09-28T12:10:17.287Z,93625.80
2022-09-28T12:12:53.391Z,93624.20
2022-09-28T12:15:38.328Z,93614.80
2022-09-28T12:18:42.249Z,93617.40
2022-09-28T12:21:45.260Z,93616.20
2022-09-28T12:24:34.763Z,93620.40
2022-09-28T12:27:10.591Z,93627.00
2022-09-28T12:30:16.125Z,93628.60
2022-09-28T12:33:09.325Z,93621.20
2022-09-28T12:36:07.022Z,93618.00
2022-09-28T12:39:19.136Z,93615.80
2022-09-28T12:42:28.691Z,93627.80
2022-09-28T12:45:11.521Z,93633.00
2022-09-28T12:48:08.311Z,93627.60
2022-09-28T12:51:05.662Z,93620.40
2022-09-28T12:53:49.184Z,93622.00
2022-09-28T12:56:39.116Z,93619.60
2022-09-28T12:59:16.282Z,93625.60
2022-09-28T13:02:33.234Z,93631.00
2022-09-28T13:05:56.391Z,93639.80
2022-09-28T13:08:55.337Z,93626.20
2022-09-28T13:11:41.167Z,93633.00
2022-09-28T13:14:23.100Z,93636.20
2022-09-28T13:17:28.580Z,93641.20
2022-09-28T13:20:04.409Z,93639.00
2022-09-28T13:22:55.188Z,93642.00
2022-09-28T13:25:25.719Z,93637.20
2022-09-28T13:28:02.985Z,93634.20
2022-09-28T13:30:32.667Z,93629.80
2022-09-28T13:33:04.111Z,93625.80
2022-09-28T13:35:33.321Z,93629.80
2022-09-28T13:38:18.210Z,93630.00
2022-09-28T13:41:03.833Z,93627.80
2022-09-28T13:43:53.501Z,93621.60
2022-09-28T13:46:41.097Z,93629.60
2022-09-28T13:49:29.095Z,93631.00
2022-09-28T13:52:34.808Z,93643.40
2022-09-28T13:55:32.895Z,93646.60
2022-09-28T13:58:27.879Z,93648.20
2022-09-28T14:01:19.701Z,93645.80
2022-09-28T14:04:20.675Z,93645.60
2022-09-28T14:06:59.454Z,93639.20
2022-09-28T14:10:24.550Z,93638.40
2022-09-28T14:12:52.991Z,93631.00
2022-09-28T14:15:28.546Z,93628.80
2022-09-28T14:18:12.627Z,93635.00
2022-09-28T14:20:50.771Z,93627.20
2022-09-28T14:23:48.038Z,93630.80
2022-09-28T14:26:52.384Z,93628.80
2022-09-28T14:29:31.368Z,93631.80
2022-09-28T14:32:05.243Z,93626.00
2022-09-28T14:34:35.649Z,93625.40
2022-09-28T14:37:24.770Z,93631.60
2022-09-28T14:40:10.266Z,93638.80
2022-09-28T14:42:37.193Z,93633.00
2022-09-28T14:45:06.589Z,93634.80
2022-09-28T14:48:05.235Z,93634.60
2022-09-28T14:50:31.913Z,93636.00
2022-09-28T14:53:12.293Z,93637.40
2022-09-28T14:55:58.397Z,93635.60
2022-09-28T14:58:28.240Z,93634.60
2022-09-28T15:01:02.550Z,93642.40
2022-09-28T15:03:33.564Z,93641.00
2022-09-28T15:06:01.477Z,93644.00
2022-09-28T15:08:39.846Z,93638.40
2022-09-28T15:11:15.190Z,93643.60
2022-09-28T15:13:42.946Z,93646.60
2022-09-28T15:16:16.635Z,93645.20
2022-09-28T15:19:01.643Z,93647.40
2022-09-28T15:21:39.818Z,93648.60
2022-09-28T15:24:27.775Z,93649.20
2022-09-28T15:26:55.000Z,93647.40
2022-09-28T15:29:22.956Z,93648.60
2022-09-28T15:31:54.160Z,93654.20
2022-09-28T15:34:52.420Z,93654.40
2022-09-28T15:37:26.847Z,93654.60
2022-09-28T15:39:56.437Z,93663.60
2022-09-28T15:42:23.146Z,93657.20
2022-09-28T15:45:13.735Z,93662.80
2022-09-28T15:47:44.841Z,93670.00
2022-09-28T15:50:28.300Z,93656.80
2022-09-28T15:53:00.912Z,93668.20
2022-09-28T15:55:32.571Z,93664.40
2022-09-28T15:58:21.820Z,93669.00
2022-09-28T16:00:52.227Z,93672.80
2022-09-28T16:03:28.363Z,93676.80
2022-09-28T16:05:57.927Z,93677.20
2022-09-28T16:08:32.884Z,93683.00
2022-09-28T16:11:12.062Z,93684.60
2022-09-28T16:14:08.879Z,93687.40
2022-09-28T16:16:58.314Z,93692.60
2022-09-28T16:19:49.176Z,93694.60
2022-09-28T16:22:24.484Z,93694.20
2022-09-28T16:24:58.269Z,93694.60
2022-09-28T16:27:43.078Z,93698.00
2022-09-28T16:30:28.903Z,93697.80
2022-09-28T16:33:05.781Z,93697.40
2022-09-28T16:35:35.089Z,93697.60
2022-09-28T16:38:13.704Z,93690.80
2022-09-28T16:40:49.738Z,93688.80
2022-09-28T16:43:35.005Z,93687.60
2022-09-28T16:46:12.791Z,93685.60
2022-09-28T16:48:48.936Z,93681.20
2022-09-28T16:51:20.996Z,93675.00
2022-09-28T16:54:06.995Z,93673.00
2022-09-28T16:56:35.927Z,93681.00
2022-09-28T16:59:03.770Z,93681.40
2022-09-28T17:01:31.553Z,93687.80
2022-09-28T17:03:58.442Z,93691.80
2022-09-28T17:06:25.708Z,93691.00
2022-09-28T17:08:54.303Z,93693.20
2022-09-28T17:11:24.464Z,93691.20
2022-09-28T17:13:55.871Z,93689.20
2022-09-28T17:16:43.587Z,93694.00
2022-09-28T17:19:22.844Z,93692.40
2022-09-28T17:21:53.198Z,93688.80
2022-09-28T17:24:20.884Z,93692.20
2022-09-28T17:26:50.155Z,93689.60
2022-09-28T17:29:18.585Z,93688.60
2022-09-28T17:31:46.943Z,93692.00
2022-09-28T17:34:16.472Z,93690.00
2022-09-28T17:36:44.704Z,93687.00
2022-09-28T17:39:18.783Z,93693.20
2022-09-28T17:41:45.589Z,93696.40
2022-09-28T17:44:16.390Z,93699.00
2022-09-28T17:46:47.451Z,93693.60
2022-09-28T17:49:14.616Z,93691.00
2022-09-28T17:51:41.334Z,93692.20
2022-09-28T17:54:08.337Z,93701.00
2022-09-28T17:56:36.022Z,93698.20
2022-09-28T17:59:07.142Z,93706.20
2022-09-28T18:01:38.815Z,93704.20
2022-09-28T18:04:08.909Z,93704.40
2022-09-28T18:06:37.355Z,93700.20
2022-09-28T18:09:05.417Z,93705.80
2022-09-28T18:11:33.325Z,93703.80
2022-09-28T18:14:00.138Z,93705.80
2022-09-28T18:16:28.878Z,93710.40
2022-09-28T18:18:56.145Z,93711.60
2022-09-28T18:21:22.807Z,93709.40
2022-09-28T18:23:49.455Z,93711.40
2022-09-28T18:26:19.030Z,93713.20
2022-09-28T18:28:46.837Z,93717.00
2022-09-28T18:31:15.744Z,93716.20
2022-09-28T18:33:43.327Z,93714.40
2022-09-28T18:36:09.952Z,93719.80
2022-09-28T18:38:37.841Z,93727.20
2022-09-28T18:41:16.097Z,93731.20
2022-09-28T18:43:49.190Z,93734.80
2022-09-28T18:46:18.294Z,93740.20
2022-09-28T18:48:47.196Z,93745.00
2022-09-28T18:51:14.571Z,93748.80
2022-09-28T18:53:41.351Z,93757.60
2022-09-28T18:56:14.689Z,93756.00
2022-09-28T18:58:42.543Z,93761.80
2022-09-28T19:04:03.553Z,93767.40
2022-09-28T19:06:31.864Z,93769.00
2022-09-28T19:08:59.039Z,93766.40
2022-09-28T19:11:26.207Z,93764.80
2022-09-28T19:13:54.965Z,93770.40
2022-09-28T19:16:28.583Z,93767.60
2022-09-28T19:19:01.091Z,93774.80
2022-09-28T19:21:27.778Z,93774.60
2022-09-28T19:23:55.475Z,93780.80
2022-09-28T19:26:27.279Z,93784.40
2022-09-28T19:28:56.351Z,93787.40
2022-09-28T19:31:24.226Z,93790.40
2022-09-28T19:33:50.977Z,93795.00
2022-09-28T19:36:22.383Z,93799.60
2022-09-28T19:38:50.200Z,93802.60
2022-09-28T19:41:39.522Z,93800.40
2022-09-28T19:44:25.110Z,93800.40
2022-09-28T19:47:06.588Z,93800.80
2022-09-28T19:49:38.832Z,93800.80
2022-09-28T19:52:16.095Z,93802.80
2022-09-28T19:54:49.107Z,93805.80
2022-09-28T19:57:15.990Z,93809.60
2022-09-28T19:59:43.212Z,93819.00
2022-09-28T20:02:11.262Z,93825.40
2022-09-28T20:04:37.995Z,93831.60
2022-09-28T20:07:05.248Z,93838.60
2022-09-28T20:09:32.939Z,93847.20
2022-09-28T20:11:59.656Z,93848.20
2022-09-28T20:14:31.809Z,93850.20
2022-09-28T20:17:00.987Z,93845.80
2022-09-28T20:19:27.587Z,93848.60
2022-09-28T20:21:54.809Z,93846.20
2022-09-28T20:24:21.468Z,93855.40
2022-09-28T20:26:49.558Z,93853.20
2022-09-28T20:29:16.118Z,93852.40
2022-09-28T20:31:43.254Z,93853.40
2022-09-28T20:34:12.071Z,93857.00
2022-09-28T20:36:38.847Z,93853.80
2022-09-28T20:39:05.451Z,93855.00
2022-09-28T20:41:36.857Z,93855.60
2022-09-28T20:44:06.483Z,93853.80
2022-09-28T20:46:36.997Z,93857.20
2022-09-28T20:49:05.538Z,93859.80
2022-09-28T20:51:32.350Z,93860.60
2022-09-28T20:53:59.718Z,93864.80
2022-09-28T20:56:30.506Z,93868.20
2022-09-28T20:58:57.459Z,93868.80
2022-09-28T21:01:30.011Z,93868.80
2022-09-28T21:04:02.548Z,93870.20
2022-09-28T21:06:41.422Z,93865.20
2022-09-28T21:09:11.056Z,93867.20
2022-09-28T21:11:39.693Z,93862.00
2022-09-28T21:14:08.588Z,93866.00
2022-09-28T21:16:36.043Z,93866.20
2022-09-28T21:19:03.944Z,93869.00
2022-09-28T21:21:30.519Z,93872.40
2022-09-28T21:23:58.109Z,93875.60
2022-09-28T21:26:28.615Z,93874.60
2022-09-28T21:29:01.086Z,93875.20
2022-09-28T21:31:40.384Z,93876.20
2022-09-28T21:34:13.413Z,93870.40
2022-09-28T21:36:43.485Z,93870.40
2022-09-28T21:39:10.828Z,93864.40
2022-09-28T21:41:37.723Z,93861.40
2022-09-28T21:44:04.998Z,93857.60
2022-09-28T21:46:34.368Z,93858.20
2022-09-28T21:49:03.911Z,93857.80
2022-09-28T21:51:30.685Z,93857.80
2022-09-28T21:53:57.610Z,93855.60
2022-09-28T21:56:24.240Z,93848.00
2022-09-28T21:58:51.052Z,93852.20
2022-09-28T22:01:25.659Z,93849.80
2022-09-28T22:03:56.726Z,93851.40
2022-09-28T22:06:29.181Z,93851.60
2022-09-28T22:08:56.756Z,93851.00
2022-09-28T22:11:27.223Z,93858.00
2022-09-28T22:13:58.166Z,93856.60
2022-09-28T22:16:29.996Z,93866.40
2022-09-28T22:18:58.114Z,93864.80
2022-09-28T22:21:31.994Z,93868.40
2022-09-28T22:24:05.520Z,93873.80
2022-09-28T22:26:35.716Z,93874.40
2022-09-28T22:29:08.326Z,93881.60
2022-09-28T22:31:40.652Z,93877.60
2022-09-28T22:34:08.738Z,93878.40
2022-09-28T22:36:35.772Z,93880.00
2022-09-28T22:39:03.274Z,93877.20
2022-09-28T22:41:30.078Z,93872.60
2022-09-28T22:43:56.800Z,93871.40
2022-09-28T22:46:26.691Z,93875.40
2022-09-28T22:48:56.365Z,93880.00
2022-09-28T22:51:25.577Z,93877.60
2022-09-28T22:53:52.307Z,93878.60
2022-09-28T22:56:19.395Z,93883.00
2022-09-28T22:58:46.797Z,93883.40
2022-09-28T23:01:17.307Z,93875.40
2022-09-28T23:03:44.872Z,93869.40
2022-09-28T23:06:16.020Z,93872.20
2022-09-28T23:08:44.731Z,93873.20
2022-09-28T23:11:11.999Z,93874.00
2022-09-28T23:13:38.872Z,93876.40
2022-09-28T23:16:10.779Z,93873.00
2022-09-28T23:18:42.437Z,93873.40
2022-09-28T23:21:18.426Z,93870.80
2022-09-28T23:23:47.095Z,93865.60
2022-09-28T23:26:17.658Z,93865.20
2022-09-28T23:28:44.948Z,93862.00
2022-09-28T23:31:17.612Z,93862.60
2022-09-28T23:33:44.352Z,93860.80
2022-09-28T23:36:11.236Z,93860.20
2022-09-28T23:38:38.709Z,93856.40
2022-09-28T23:41:06.244Z,93855.20
2022-09-28T23:43:33.427Z,93853.80
2022-09-28T23:46:00.244Z,93848.00
2022-09-28T23:48:26.935Z,93841.00
2022-09-28T23:50:53.525Z,93844.20
2022-09-28T23:53:20.247Z,93849.40
2022-09-28T23:55:46.901Z,93841.40
2022-09-28T23:58:13.521Z,93843.20
